createdAt,value
2023-04-18T00:01:44.615Z,6.00
2023-04-18T00:04:11.904Z,5.30
2023-04-18T00:06:39.192Z,5.90
2023-04-18T00:09:05.828Z,5.70
2023-04-18T00:11:32.535Z,5.90
2023-04-18T00:13:59.445Z,5.70
2023-04-18T00:16:27.210Z,6.00
2023-04-18T00:18:54.244Z,6.20
2023-04-18T00:21:22.541Z,5.90
2023-04-18T00:23:49.219Z,6.60
2023-04-18T00:26:15.862Z,7.00
2023-04-18T00:28:42.600Z,7.10
2023-04-18T00:31:09.302Z,6.60
2023-04-18T00:33:36.020Z,6.20
2023-04-18T00:36:02.530Z,6.40
2023-04-18T00:38:29.075Z,7.20
2023-04-18T00:40:55.763Z,6.30
2023-04-18T00:43:24.096Z,6.70
2023-04-18T00:45:50.692Z,6.40
2023-04-18T00:48:18.402Z,6.10
2023-04-18T00:50:45.426Z,6.50
2023-04-18T00:53:12.063Z,6.20
2023-04-18T00:55:39.166Z,6.10
2023-04-18T00:58:06.347Z,5.80
2023-04-18T01:00:35.729Z,6.60
2023-04-18T01:03:02.693Z,6.30
2023-04-18T01:05:29.839Z,6.70
2023-04-18T01:08:00.859Z,6.70
2023-04-18T01:10:28.483Z,6.30
2023-04-18T01:13:11.762Z,7.20
2023-04-18T01:15:40.779Z,7.30
2023-04-18T01:18:08.902Z,6.30
2023-04-18T01:20:38.140Z,6.50
2023-04-18T01:23:05.695Z,6.50
2023-04-18T01:25:33.029Z,7.40
2023-04-18T01:28:00.160Z,6.50
2023-04-18T01:30:26.869Z,6.90
2023-04-18T01:32:53.481Z,6.90
2023-04-18T01:35:20.423Z,7.20
2023-04-18T01:37:47.420Z,7.00
2023-04-18T01:40:14.358Z,7.30
2023-04-18T01:42:40.984Z,7.30
2023-04-18T01:45:08.338Z,6.90
2023-04-18T01:47:35.246Z,7.60
2023-04-18T01:50:02.548Z,7.50
2023-04-18T01:52:29.058Z,7.80
2023-04-18T01:54:55.980Z,8.00
2023-04-18T01:57:22.523Z,8.70
2023-04-18T01:59:49.052Z,8.80
2023-04-18T02:02:15.794Z,9.00
2023-04-18T02:04:42.658Z,8.40
2023-04-18T02:07:09.184Z,8.70
2023-04-18T02:09:36.140Z,10.30
2023-04-18T02:12:03.180Z,9.90
2023-04-18T02:14:31.074Z,9.70
2023-04-18T02:16:58.911Z,9.30
2023-04-18T02:19:25.743Z,10.00
2023-04-18T02:21:52.240Z,10.00
2023-04-18T02:24:19.054Z,9.90
2023-04-18T02:26:46.013Z,9.80
2023-04-18T02:29:12.837Z,10.20
2023-04-18T02:31:40.905Z,9.80
2023-04-18T02:34:08.368Z,9.80
2023-04-18T02:36:34.935Z,10.30
2023-04-18T02:39:01.585Z,10.60
2023-04-18T02:41:28.392Z,10.50
2023-04-18T02:43:55.157Z,10.50
2023-04-18T02:46:22.012Z,11.10
2023-04-18T02:48:48.814Z,10.80
2023-04-18T02:51:15.706Z,10.70
2023-04-18T02:53:42.405Z,10.60
2023-04-18T02:56:09.228Z,10.20
2023-04-18T02:58:36.404Z,10.30
2023-04-18T03:01:03.274Z,10.60
2023-04-18T03:03:30.201Z,10.20
2023-04-18T03:05:57.103Z,10.30
2023-04-18T03:08:23.958Z,10.70
2023-04-18T03:10:50.532Z,10.50
2023-04-18T03:13:17.222Z,11.00
2023-04-18T03:15:43.899Z,10.40
2023-04-18T03:18:12.358Z,10.40
2023-04-18T03:20:39.103Z,10.90
2023-04-18T03:23:05.761Z,11.00
2023-04-18T03:25:32.564Z,10.80
2023-04-18T03:27:59.304Z,11.00
2023-04-18T03:30:26.148Z,11.20
2023-04-18T03:32:53.719Z,11.20
2023-04-18T03:35:20.819Z,11.10
2023-04-18T03:37:47.491Z,11.50
2023-04-18T03:40:14.124Z,11.90
2023-04-18T03:42:40.817Z,11.30
2023-04-18T03:45:08.055Z,10.60
2023-04-18T03:47:34.802Z,12.10
2023-04-18T03:50:01.504Z,10.80
2023-04-18T03:52:29.729Z,11.80
2023-04-18T03:54:56.485Z,11.60
2023-04-18T03:57:22.933Z,11.40
2023-04-18T03:59:49.601Z,11.00
2023-04-18T04:02:16.772Z,10.70
2023-04-18T04:04:43.670Z,10.90
2023-04-18T04:07:10.810Z,10.70
2023-04-18T04:09:37.443Z,10.90
2023-04-18T04:12:04.294Z,9.80
2023-04-18T04:14:30.896Z,10.40
2023-04-18T04:16:57.803Z,10.50
2023-04-18T04:19:24.896Z,9.80
2023-04-18T04:21:51.611Z,10.00
2023-04-18T04:24:20.440Z,10.50
2023-04-18T04:26:48.656Z,10.10
2023-04-18T04:29:16.363Z,9.60
2023-04-18T04:31:43.127Z,9.90
2023-04-18T04:34:09.803Z,9.80
2023-04-18T04:36:36.784Z,9.80
2023-04-18T04:39:04.227Z,9.50
2023-04-18T04:41:31.597Z,11.20
2023-04-18T04:43:59.564Z,9.90
2023-04-18T04:46:30.246Z,9.90
2023-04-18T04:48:57.425Z,9.70
2023-04-18T04:51:24.826Z,10.00
2023-04-18T04:53:51.704Z,10.20
2023-04-18T04:56:21.481Z,9.60
2023-04-18T04:58:48.319Z,9.70
2023-04-18T05:01:16.722Z,9.40
2023-04-18T05:03:43.945Z,8.90
2023-04-18T05:06:10.697Z,9.60
2023-04-18T05:08:37.346Z,9.10
2023-04-18T05:11:04.072Z,9.10
2023-04-18T05:13:30.527Z,8.70
2023-04-18T05:15:59.240Z,9.70
2023-04-18T05:18:26.049Z,9.40
2023-04-18T05:20:52.868Z,9.20
2023-04-18T05:23:19.750Z,8.60
2023-04-18T05:25:46.505Z,9.50
2023-04-18T05:28:13.315Z,10.00
2023-04-18T05:30:40.283Z,9.60
2023-04-18T05:33:07.390Z,9.20
2023-04-18T05:35:34.263Z,9.70
2023-04-18T05:38:00.918Z,9.20
2023-04-18T05:40:28.220Z,9.50
2023-04-18T05:42:54.857Z,8.70
2023-04-18T05:45:21.548Z,9.60
2023-04-18T05:47:48.545Z,8.70
2023-04-18T05:50:15.406Z,9.30
2023-04-18T05:52:41.841Z,9.70
2023-04-18T05:55:09.293Z,8.80
2023-04-18T05:57:36.208Z,9.60
2023-04-18T06:00:06.753Z,9.80
2023-04-18T06:02:33.509Z,9.60
2023-04-18T06:05:01.400Z,9.60
2023-04-18T06:07:28.456Z,9.30
2023-04-18T06:09:56.597Z,10.20
2023-04-18T06:12:23.336Z,9.50
2023-04-18T06:14:50.925Z,9.50
2023-04-18T06:17:17.712Z,9.90
2023-04-18T06:19:44.680Z,10.30
2023-04-18T06:22:11.384Z,10.10
2023-04-18T06:24:38.477Z,10.30
2023-04-18T06:27:05.665Z,9.60
2023-04-18T06:29:33.250Z,9.70
2023-04-18T06:32:00.135Z,10.10
2023-04-18T06:34:26.796Z,10.00
2023-04-18T06:36:53.524Z,9.60
2023-04-18T06:39:20.448Z,9.80
2023-04-18T06:41:48.488Z,9.70
2023-04-18T06:44:15.640Z,9.80
2023-04-18T06:46:42.743Z,10.30
2023-04-18T06:49:09.982Z,9.60
2023-04-18T06:51:36.803Z,8.90
2023-04-18T06:54:03.789Z,9.60
2023-04-18T06:56:30.745Z,9.30
2023-04-18T06:58:58.173Z,9.80
2023-04-18T07:01:25.212Z,10.20
2023-04-18T07:03:52.087Z,9.30
2023-04-18T07:06:18.833Z,9.70
2023-04-18T07:08:45.508Z,9.80
2023-04-18T07:11:13.278Z,10.70
2023-04-18T07:13:40.079Z,10.30
2023-04-18T07:16:07.492Z,10.40
2023-04-18T07:18:38.040Z,9.80
2023-04-18T07:21:09.079Z,9.50
2023-04-18T07:23:36.164Z,10.00
2023-04-18T07:26:08.251Z,9.40
2023-04-18T07:28:34.858Z,10.30
2023-04-18T07:31:03.022Z,9.00
2023-04-18T07:33:33.530Z,9.40
2023-04-18T07:36:01.528Z,9.40
2023-04-18T07:38:28.529Z,10.10
2023-04-18T07:40:59.158Z,9.90
2023-04-18T07:43:26.358Z,9.60
2023-04-18T07:45:53.388Z,9.70
2023-04-18T07:48:25.084Z,9.80
2023-04-18T07:50:52.053Z,9.50
2023-04-18T07:53:18.878Z,8.90
2023-04-18T07:55:46.513Z,9.10
2023-04-18T07:58:13.708Z,9.20
2023-04-18T08:00:42.522Z,8.70
2023-04-18T08:03:13.059Z,9.30
2023-04-18T08:05:40.539Z,8.50
2023-04-18T08:08:08.906Z,8.60
2023-04-18T08:10:35.896Z,8.90
2023-04-18T08:13:03.374Z,8.70
2023-04-18T08:15:32.265Z,8.70
2023-04-18T08:17:59.875Z,7.80
2023-04-18T08:20:26.745Z,8.70
2023-04-18T08:23:05.623Z,7.80
2023-04-18T08:25:33.289Z,7.60
2023-04-18T08:28:00.097Z,8.00
2023-04-18T08:30:27.028Z,6.90
2023-04-18T08:32:53.834Z,7.20
2023-04-18T08:35:20.817Z,7.50
2023-04-18T08:37:47.671Z,7.00
2023-04-18T08:40:14.618Z,6.60
2023-04-18T08:42:44.300Z,7.00
2023-04-18T08:45:13.950Z,7.00
2023-04-18T08:47:41.575Z,7.20
2023-04-18T08:50:09.705Z,7.00
2023-04-18T08:52:38.845Z,6.80
2023-04-18T08:55:06.298Z,7.30
2023-04-18T08:57:33.462Z,6.80
2023-04-18T09:00:11.114Z,6.70
2023-04-18T09:02:42.448Z,6.80
2023-04-18T09:05:16.564Z,6.20
2023-04-18T09:07:44.160Z,6.20
2023-04-18T09:10:12.460Z,5.70
2023-04-18T09:12:52.122Z,6.20
2023-04-18T09:15:23.411Z,5.90
2023-04-18T09:17:54.296Z,6.40
2023-04-18T09:20:37.559Z,5.70
2023-04-18T09:23:14.387Z,5.40
2023-04-18T09:25:48.896Z,6.00
2023-04-18T09:28:23.464Z,5.20
2023-04-18T09:30:54.217Z,5.50
2023-04-18T09:33:33.795Z,5.30
2023-04-18T09:36:37.240Z,6.10
2023-04-18T09:39:04.148Z,5.90
2023-04-18T09:41:32.520Z,5.90
2023-04-18T09:44:14.663Z,5.70
2023-04-18T09:46:44.487Z,5.00
2023-04-18T09:49:12.867Z,5.20
2023-04-18T09:51:42.032Z,5.30
2023-04-18T09:54:10.859Z,5.10
2023-04-18T09:56:40.967Z,4.70
2023-04-18T09:59:09.187Z,4.30
2023-04-18T10:01:36.537Z,4.70
2023-04-18T10:04:06.465Z,4.60
2023-04-18T10:06:41.849Z,4.60
2023-04-18T10:09:09.343Z,5.20
2023-04-18T10:11:36.441Z,5.50
2023-04-18T10:14:06.844Z,5.50
2023-04-18T10:16:34.945Z,4.90
2023-04-18T10:19:27.197Z,4.50
2023-04-18T10:22:01.472Z,4.80
2023-04-18T10:24:49.994Z,4.30
2023-04-18T10:27:17.840Z,4.70
2023-04-18T10:29:52.347Z,4.40
2023-04-18T10:32:22.115Z,4.70
2023-04-18T10:34:53.847Z,4.40
2023-04-18T10:37:20.613Z,4.80
2023-04-18T10:40:08.433Z,4.50
2023-04-18T10:42:47.323Z,4.50
2023-04-18T10:45:24.792Z,4.00
2023-04-18T10:48:11.474Z,4.50
2023-04-18T10:51:12.815Z,3.90
2023-04-18T10:53:40.548Z,3.60
2023-04-18T10:56:09.480Z,4.00
2023-04-18T10:58:36.869Z,4.50
2023-04-18T11:01:04.865Z,4.20
2023-04-18T11:03:34.803Z,4.20
2023-04-18T11:06:04.647Z,4.20
2023-04-18T11:08:31.830Z,4.40
2023-04-18T11:11:03.480Z,3.80
2023-04-18T11:13:31.935Z,4.30
2023-04-18T11:15:58.763Z,4.10
2023-04-18T11:18:25.584Z,4.00
2023-04-18T11:20:52.455Z,4.10
2023-04-18T11:23:25.463Z,4.10
2023-04-18T11:25:56.197Z,4.20
2023-04-18T11:28:24.917Z,4.00
2023-04-18T11:30:51.634Z,4.30
2023-04-18T11:33:18.321Z,4.40
2023-04-18T11:35:46.028Z,4.10
2023-04-18T11:38:14.489Z,3.90
2023-04-18T11:40:50.815Z,4.20
2023-04-18T11:43:22.904Z,3.80
2023-04-18T11:45:56.878Z,3.80
2023-04-18T11:48:24.130Z,3.90
2023-04-18T11:50:51.085Z,4.00
2023-04-18T11:53:37.825Z,4.00
2023-04-18T11:56:05.733Z,3.80
2023-04-18T11:58:33.841Z,3.80
2023-04-18T12:01:16.677Z,4.20
2023-04-18T12:03:44.943Z,4.20
2023-04-18T12:06:12.095Z,3.90
2023-04-18T12:08:38.586Z,3.90
2023-04-18T12:11:05.626Z,3.70
2023-04-18T12:13:32.916Z,3.80
2023-04-18T12:16:02.485Z,4.10
2023-04-18T12:18:29.883Z,3.90
2023-04-18T12:20:58.587Z,4.00
2023-04-18T12:23:51.771Z,4.10
2023-04-18T12:26:18.530Z,3.70
2023-04-18T12:28:46.000Z,3.40
2023-04-18T12:31:12.796Z,3.40
2023-04-18T12:33:39.581Z,3.80
2023-04-18T12:36:08.226Z,3.80
2023-04-18T12:38:35.398Z,3.60
2023-04-18T12:41:01.996Z,3.30
2023-04-18T12:43:28.665Z,3.40
2023-04-18T12:45:55.159Z,3.60
2023-04-18T12:48:21.748Z,3.40
2023-04-18T12:50:48.427Z,3.20
2023-04-18T12:53:14.890Z,3.40
2023-04-18T12:55:41.486Z,3.00
2023-04-18T12:58:08.106Z,3.70
2023-04-18T13:00:34.844Z,3.30
2023-04-18T13:03:01.646Z,3.20
2023-04-18T13:05:33.124Z,3.40
2023-04-18T13:10:31.084Z,3.50
2023-04-18T13:12:57.474Z,3.60
2023-04-18T13:15:24.092Z,3.80
2023-04-18T13:17:50.933Z,3.60
2023-04-18T13:20:17.578Z,3.70
2023-04-18T13:22:45.178Z,3.60
2023-04-18T13:25:11.776Z,3.90
2023-04-18T13:27:41.721Z,3.60
2023-04-18T13:30:10.648Z,2.70
2023-04-18T13:32:39.077Z,3.90
2023-04-18T13:35:08.240Z,3.60
2023-04-18T13:37:34.790Z,3.10
2023-04-18T13:40:01.548Z,3.10
2023-04-18T13:42:28.084Z,3.30
2023-04-18T13:44:54.782Z,3.60
2023-04-18T13:47:21.419Z,3.40
2023-04-18T13:49:47.943Z,3.10
2023-04-18T13:52:14.718Z,3.10
2023-04-18T13:54:41.476Z,3.30
2023-04-18T13:57:11.604Z,3.70
2023-04-18T13:59:40.504Z,3.60
2023-04-18T14:02:09.028Z,3.00
2023-04-18T14:04:36.579Z,3.60
2023-04-18T14:07:06.142Z,3.30
2023-04-18T14:09:32.785Z,3.40
2023-04-18T14:11:59.487Z,3.30
2023-04-18T14:14:26.027Z,2.90
2023-04-18T14:16:53.748Z,2.70
2023-04-18T14:19:20.526Z,2.70
2023-04-18T14:21:47.959Z,2.80
2023-04-18T14:24:14.889Z,2.60
2023-04-18T14:26:41.631Z,2.70
2023-04-18T14:29:08.321Z,2.70
2023-04-18T14:31:35.363Z,2.90
2023-04-18T14:34:02.036Z,2.60
2023-04-18T14:36:28.724Z,2.50
2023-04-18T14:38:55.379Z,2.50
2023-04-18T14:41:22.280Z,2.90
2023-04-18T14:43:48.899Z,2.50
2023-04-18T14:46:18.695Z,2.70
2023-04-18T14:48:46.913Z,2.80
2023-04-18T14:51:15.584Z,3.00
2023-04-18T14:53:42.369Z,2.70
2023-04-18T14:56:09.381Z,3.20
2023-04-18T14:58:36.220Z,3.10
2023-04-18T15:01:04.147Z,3.10
2023-04-18T15:03:31.320Z,2.90
2023-04-18T15:05:58.328Z,3.00
2023-04-18T15:08:25.188Z,3.00
2023-04-18T15:10:52.019Z,2.90
2023-04-18T15:13:18.692Z,2.90
2023-04-18T15:15:51.744Z,3.00
2023-04-18T15:18:18.484Z,3.10
2023-04-18T15:20:45.091Z,3.10
2023-04-18T15:23:13.719Z,3.40
2023-04-18T15:25:41.669Z,3.80
2023-04-18T15:28:08.454Z,3.40
2023-04-18T15:30:35.201Z,3.50
2023-04-18T15:33:02.421Z,3.40
2023-04-18T15:35:29.254Z,3.30
2023-04-18T15:37:57.387Z,4.00
2023-04-18T15:40:24.215Z,4.60
2023-04-18T15:42:53.433Z,7.40
2023-04-18T15:45:21.269Z,5.30
2023-04-18T15:47:48.452Z,4.60
2023-04-18T15:50:16.248Z,4.20
2023-04-18T15:52:43.901Z,4.70
2023-04-18T15:55:12.968Z,5.20
2023-04-18T15:57:40.017Z,5.20
2023-04-18T16:00:15.738Z,4.90
2023-04-18T16:02:43.780Z,5.00
2023-04-18T16:05:12.262Z,4.90
2023-04-18T16:07:42.648Z,5.60
2023-04-18T16:10:10.665Z,5.10
2023-04-18T16:12:39.040Z,4.90
2023-04-18T16:15:08.260Z,5.00
2023-04-18T16:17:36.703Z,4.80
2023-04-18T16:20:03.931Z,5.20
2023-04-18T16:22:30.764Z,4.90
2023-04-18T16:24:57.617Z,4.30
2023-04-18T16:27:24.301Z,5.60
2023-04-18T16:29:50.982Z,5.10
2023-04-18T16:32:17.761Z,4.90
2023-04-18T16:34:44.574Z,5.20
2023-04-18T16:37:11.296Z,5.90
2023-04-18T16:39:38.046Z,5.50
2023-04-18T16:42:04.965Z,5.80
2023-04-18T16:44:32.548Z,5.90
2023-04-18T16:46:59.343Z,5.90
2023-04-18T16:49:26.173Z,6.10
2023-04-18T16:51:52.767Z,6.30
2023-04-18T16:54:19.463Z,7.00
2023-04-18T16:56:46.438Z,6.60
2023-04-18T16:59:13.003Z,5.90
2023-04-18T17:01:39.681Z,6.80
2023-04-18T17:04:06.737Z,6.30
2023-04-18T17:06:33.320Z,11.50
2023-04-18T17:08:59.994Z,6.80
2023-04-18T17:11:26.757Z,12.20
2023-04-18T17:13:53.703Z,6.90
2023-04-18T17:16:20.600Z,7.10
2023-04-18T17:18:47.253Z,6.80
2023-04-18T17:21:14.021Z,6.80
2023-04-18T17:23:42.473Z,6.50
2023-04-18T17:26:09.565Z,6.40
2023-04-18T17:28:36.449Z,6.20
2023-04-18T17:31:03.220Z,6.40
2023-04-18T17:33:30.318Z,6.60
2023-04-18T17:35:57.146Z,6.30
2023-04-18T17:38:23.746Z,5.80
2023-04-18T17:40:58.500Z,10.70
2023-04-18T17:43:25.113Z,6.00
2023-04-18T17:45:52.118Z,6.20
2023-04-18T17:48:18.780Z,6.50
2023-04-18T17:50:45.616Z,6.90
2023-04-18T17:53:12.326Z,6.70
2023-04-18T17:55:40.532Z,6.70
2023-04-18T17:58:07.205Z,6.60
2023-04-18T18:00:33.926Z,6.40
2023-04-18T18:03:01.614Z,7.00
2023-04-18T18:05:28.464Z,6.80
2023-04-18T18:07:56.194Z,7.00
2023-04-18T18:10:23.803Z,7.30
2023-04-18T18:12:50.860Z,7.00
2023-04-18T18:15:18.326Z,7.40
2023-04-18T18:17:44.846Z,6.90
2023-04-18T18:20:11.694Z,7.00
2023-04-18T18:22:38.295Z,7.30
2023-04-18T18:25:08.099Z,7.50
2023-04-18T18:27:34.880Z,7.90
2023-04-18T18:30:01.640Z,7.20
2023-04-18T18:32:28.452Z,7.40
2023-04-18T18:34:55.004Z,7.60
2023-04-18T18:37:23.215Z,7.70
2023-04-18T18:39:50.010Z,8.10
2023-04-18T18:42:16.675Z,8.60
2023-04-18T18:44:43.476Z,7.40
2023-04-18T18:47:10.110Z,8.10
2023-04-18T18:49:36.728Z,7.70
2023-04-18T18:52:05.307Z,8.20
2023-04-18T18:54:32.110Z,8.00
2023-04-18T18:57:00.200Z,7.90
2023-04-18T18:59:27.137Z,8.10
2023-04-18T19:01:53.655Z,7.90
2023-04-18T19:04:20.512Z,7.10
2023-04-18T19:06:47.189Z,6.70
2023-04-18T19:09:14.048Z,7.30
2023-04-18T19:11:40.795Z,7.20
2023-04-18T19:14:07.210Z,6.80
2023-04-18T19:16:35.874Z,6.60
2023-04-18T19:19:02.480Z,6.70
2023-04-18T19:21:29.320Z,6.40
2023-04-18T19:23:55.958Z,6.10
2023-04-18T19:26:23.035Z,5.10
2023-04-18T19:28:50.027Z,5.10
2023-04-18T19:31:16.713Z,5.30
2023-04-18T19:33:43.511Z,6.00
2023-04-18T19:36:10.271Z,5.40
2023-04-18T19:38:37.235Z,5.50
2023-04-18T19:41:03.789Z,4.70
2023-04-18T19:43:30.262Z,4.60
2023-04-18T19:45:56.986Z,3.90
2023-04-18T19:48:23.880Z,4.00
2023-04-18T19:50:51.144Z,3.90
2023-04-18T19:53:18.974Z,3.90
2023-04-18T19:55:46.208Z,3.90
2023-04-18T19:58:33.561Z,3.70
2023-04-18T20:01:00.552Z,3.90
2023-04-18T20:03:27.914Z,3.70
2023-04-18T20:05:54.973Z,3.90
2023-04-18T20:08:21.974Z,3.60
2023-04-18T20:10:48.555Z,3.30
2023-04-18T20:13:15.444Z,3.80
2023-04-18T20:15:42.350Z,4.30
2023-04-18T20:18:09.150Z,3.90
2023-04-18T20:20:35.822Z,5.70
2023-04-18T20:23:03.322Z,4.40
2023-04-18T20:25:30.052Z,4.20
2023-04-18T20:27:56.870Z,3.70
2023-04-18T20:30:23.593Z,3.40
2023-04-18T20:32:50.362Z,3.80
2023-04-18T20:35:17.112Z,3.40
2023-04-18T20:37:44.628Z,3.50
2023-04-18T20:40:11.661Z,3.10
2023-04-18T20:42:38.875Z,3.30
2023-04-18T20:45:11.682Z,3.20
2023-04-18T20:47:41.307Z,3.40
2023-04-18T20:50:08.773Z,3.10
2023-04-18T20:52:35.335Z,3.50
2023-04-18T20:55:01.925Z,3.30
2023-04-18T20:57:28.991Z,3.00
2023-04-18T20:59:58.486Z,3.60
2023-04-18T21:02:26.298Z,3.10
2023-04-18T21:04:53.036Z,3.10
2023-04-18T21:07:19.705Z,3.60
2023-04-18T21:09:46.423Z,3.30
2023-04-18T21:12:13.181Z,3.30
2023-04-18T21:14:40.014Z,3.10
2023-04-18T21:17:06.536Z,6.60
2023-04-18T21:19:33.198Z,3.50
2023-04-18T21:21:59.826Z,3.00
2023-04-18T21:24:26.490Z,3.30
2023-04-18T21:26:53.152Z,3.40
2023-04-18T21:29:21.596Z,3.60
2023-04-18T21:31:50.119Z,3.00
2023-04-18T21:34:16.800Z,3.10
2023-04-18T21:36:43.998Z,3.00
2023-04-18T21:39:10.482Z,3.40
2023-04-18T21:41:36.998Z,3.40
2023-04-18T21:44:03.640Z,3.40
2023-04-18T21:46:30.444Z,3.40
2023-04-18T21:48:57.127Z,3.60
2023-04-18T21:51:23.910Z,3.80
2023-04-18T21:53:50.738Z,3.50
2023-04-18T21:56:17.453Z,3.70
2023-04-18T21:58:44.007Z,3.60
2023-04-18T22:01:10.633Z,3.40
2023-04-18T22:03:37.597Z,3.60
2023-04-18T22:06:04.437Z,3.90
2023-04-18T22:08:31.015Z,3.50
2023-04-18T22:10:58.917Z,3.80
2023-04-18T22:13:30.089Z,4.00
2023-04-18T22:15:58.158Z,4.80
2023-04-18T22:18:25.366Z,3.70
2023-04-18T22:20:53.679Z,3.70
2023-04-18T22:23:20.437Z,4.30
2023-04-18T22:25:46.988Z,3.60
2023-04-18T22:28:13.890Z,4.00
2023-04-18T22:30:40.467Z,3.70
2023-04-18T22:33:07.036Z,3.40
2023-04-18T22:35:33.950Z,3.80
2023-04-18T22:38:00.497Z,4.00
2023-04-18T22:40:27.148Z,4.40
2023-04-18T22:42:54.530Z,4.20
2023-04-18T22:45:21.161Z,3.90
2023-04-18T22:47:48.112Z,4.10
2023-04-18T22:50:15.214Z,4.40
2023-04-18T22:52:41.997Z,4.40
2023-04-18T22:55:09.534Z,4.30
2023-04-18T22:57:36.168Z,4.20
2023-04-18T23:00:05.050Z,4.50
2023-04-18T23:02:31.704Z,4.20
2023-04-18T23:04:59.661Z,4.20
2023-04-18T23:07:26.310Z,4.20
2023-04-18T23:09:52.935Z,4.10
2023-04-18T23:12:19.867Z,4.10
2023-04-18T23:14:46.400Z,4.00
2023-04-18T23:17:13.036Z,4.40
2023-04-18T23:19:39.940Z,3.90
2023-04-18T23:22:06.454Z,3.80
2023-04-18T23:24:33.036Z,4.30
2023-04-18T23:26:59.686Z,4.00
2023-04-18T23:29:26.784Z,3.80
2023-04-18T23:31:53.343Z,3.90
2023-04-18T23:34:22.421Z,4.20
2023-04-18T23:36:48.910Z,3.90
2023-04-18T23:39:17.478Z,3.80
2023-04-18T23:41:44.348Z,2.90
2023-04-18T23:44:11.207Z,3.20
2023-04-18T23:46:37.860Z,3.10
2023-04-18T23:49:04.461Z,3.50
2023-04-18T23:51:31.103Z,3.40
2023-04-18T23:53:57.720Z,3.20
2023-04-18T23:56:24.399Z,3.50
2023-04-18T23:58:51.010Z,3.20
